Capitol Logistics 976


EHAM
Schiphol International Airport
Amsterdam, NL
KMIA
Miami International Airport
Miami, US

Activity Log

Date Flight Route Aircraft Duration
No Flights Yet

Route Details

Aircraft Information
Primary: Boeing 747-400BCF
Backup: Boeing 777-200LRF
Route Data
Distance: 4023nm
Sched. Duration: 9h 26m
Avg. Duration: 0h 00m (-927m)
Times Flown: 0
Recm'd Route: SEELO AR22 JENKS AR22 JORAY HILEY7
Planned Altitude: 32,000ft
Origin Wx: EHAM 291025Z 05008KT 010V090 CAVOK 17/09 Q1030 NOSIG
Dest. Wx: KMIA 290953Z 11006KT 10SM FEW021 FEW100 BKN250 26/23 A3004 RMK AO2 SLP173 T02610228
Notes: SEASONAL FLIGHT | PERISHABLE CARGO

Financial History
Total Freight: 0lbs
Average Load: 0lbs/flt
Fuel Used: 0lbs
Avg. Fuel Used: 0lbs/flt
Fuel Expense: $0
Avg. Fuel Expense: $0
Avg. Fuel Cost: $0/lbs
Total Gross Income: $0
Pilot Pay: $0
Total Expenses: $0
Total Revenue: $0
Average Revenue: $0